Time;durP1;ratioP1;P1;durP2;ratioP2;P2;SDS_P1;SDS_P2;PMS_P1;PMS_P2;Temp;Humidity;BMP_temperature;BMP_pressure;BME280_temperature;BME280_humidity;BME280_pressure;Samples;Min_cycle;Max_cycle;Signal;HPM_P1;HPM_P2
2022/04/05 05:00:29;;;;;;;8.77;5.77;;;5.70;98.80;;;;;;5816545;23;20036;-86
2022/04/05 05:02:56;;;;;;;9.27;6.30;;;5.70;99.20;;;;;;4917695;29;20387;-90
2022/04/05 05:05:26;;;;;;;11.00;5.82;;;5.70;99.30;;;;;;4918054;29;20131;-94
2022/04/05 05:07:54;;;;;;;8.43;5.68;;;5.70;99.30;;;;;;4918738;29;20498;-91
2022/04/05 05:10:23;;;;;;;9.23;5.68;;;5.70;99.60;;;;;;4919136;29;20075;-92
2022/04/05 05:12:51;;;;;;;8.73;5.75;;;5.70;99.90;;;;;;4919204;29;20052;-91
2022/04/05 05:15:21;;;;;;;10.80;5.95;;;5.60;99.80;;;;;;4922862;29;20060;-93
2022/04/05 05:17:50;;;;;;;9.35;5.80;;;5.60;99.30;;;;;;4923511;29;20072;-92
2022/04/05 05:20:18;;;;;;;10.63;5.57;;;5.60;99.40;;;;;;4923935;29;20115;-96
2022/04/05 05:22:45;;;;;;;8.75;5.57;;;5.60;99.70;;;;;;4923404;29;20067;-94
2022/04/05 05:25:13;;;;;;;10.60;6.15;;;5.60;99.50;;;;;;4922866;29;20155;-96
2022/04/05 05:27:40;;;;;;;9.57;5.90;;;5.70;99.40;;;;;;4923169;29;20056;-96
2022/04/05 05:30:10;;;;;;;8.55;5.45;;;5.70;99.40;;;;;;4922986;29;20462;-95
2022/04/05 05:32:43;;;;;;;9.48;5.38;;;5.70;99.40;;;;;;4922642;29;20115;-95
2022/04/05 05:35:15;;;;;;;9.48;6.20;;;5.70;99.00;;;;;;4923498;29;20409;-95
2022/04/05 05:37:43;;;;;;;9.30;5.78;;;5.70;99.40;;;;;;4922521;29;20406;-95
2022/04/05 05:40:13;;;;;;;8.85;5.65;;;5.70;98.90;;;;;;4921720;29;20052;-92
2022/04/05 05:42:50;;;;;;;8.73;5.18;;;5.70;99.20;;;;;;4921726;29;20120;-92
2022/04/05 05:45:19;;;;;;;8.55;5.35;;;5.80;99.30;;;;;;4921716;29;20051;-88
2022/04/05 05:47:47;;;;;;;10.43;5.63;;;5.70;98.70;;;;;;4922471;29;20406;-93
2022/04/05 05:50:18;;;;;;;11.57;5.80;;;5.80;98.60;;;;;;4921636;29;20060;-96
2022/04/05 05:52:51;;;;;;;9.32;5.30;;;5.80;98.60;;;;;;4922916;29;20055;-96
2022/04/05 05:55:21;;;;;;;8.63;5.60;;;5.80;98.40;;;;;;4922690;29;20048;-92
2022/04/05 05:57:50;;;;;;;8.98;5.05;;;5.80;98.30;;;;;;4922538;29;20059;-96
2022/04/05 06:00:21;;;;;;;8.20;5.15;;;5.90;98.20;;;;;;4922065;29;20095;-93
2022/04/05 06:02:56;;;;;;;7.95;4.97;;;5.80;98.40;;;;;;4920563;29;20148;-92
2022/04/05 06:05:30;;;;;;;7.50;5.10;;;5.90;98.60;;;;;;4923218;29;20056;-92
2022/04/05 06:07:59;;;;;;;10.32;5.45;;;5.90;98.40;;;;;;4923174;29;20062;-89
2022/04/05 06:10:27;;;;;;;10.20;5.70;;;5.80;98.70;;;;;;4921827;29;20055;-94
2022/04/05 06:12:57;;;;;;;9.88;5.40;;;5.80;98.80;;;;;;4922257;29;20410;-94
2022/04/05 06:15:26;;;;;;;9.82;5.90;;;5.80;99.40;;;;;;4922048;29;20052;-94
2022/04/05 06:17:54;;;;;;;7.53;5.15;;;5.80;99.40;;;;;;4922537;29;20068;-94
2022/04/05 06:20:25;;;;;;;9.90;5.07;;;5.80;99.70;;;;;;4921102;29;20055;-94
2022/04/05 06:22:56;;;;;;;8.50;5.45;;;5.80;99.80;;;;;;4922736;29;20056;-93
2022/04/05 06:25:26;;;;;;;7.60;4.82;;;5.80;99.50;;;;;;4922035;29;20088;-96
2022/04/05 06:27:55;;;;;;;9.88;5.35;;;5.80;99.40;;;;;;4927941;29;20086;-94
2022/04/05 06:30:33;;;;;;;9.68;5.88;;;5.90;99.70;;;;;;4923909;29;20052;-88
2022/04/05 06:33:09;;;;;;;8.75;5.07;;;5.90;99.70;;;;;;4922837;29;20052;-95
2022/04/05 06:35:42;;;;;;;9.02;4.88;;;5.90;99.30;;;;;;4922796;29;20059;-94
2022/04/05 06:41:00;;;;;;;8.30;5.13;;;6.00;99.30;;;;;;4925409;29;20063;-90
2022/04/05 06:46:09;;;;;;;9.35;5.60;;;6.10;99.40;;;;;;4923644;29;20063;-92
2022/04/05 06:48:47;;;;;;;8.57;4.57;;;6.10;99.00;;;;;;4924682;29;20052;-87
2022/04/05 07:05:01;;;;;;;7.15;4.80;;;6.20;98.60;;;;;;4929162;29;20454;-89
2022/04/05 07:18:46;;;;;;;8.13;4.80;;;6.30;99.10;;;;;;4933001;29;20070;-91
2022/04/05 07:21:15;;;;;;;7.32;4.88;;;6.30;99.20;;;;;;4928852;29;20052;-90
2022/04/05 07:23:47;;;;;;;7.25;4.45;;;6.40;99.10;;;;;;4929139;29;20462;-87
2022/04/05 07:26:24;;;;;;;7.78;4.65;;;6.40;99.00;;;;;;4928760;29;20055;-89
2022/04/05 07:28:52;;;;;;;7.20;4.20;;;6.40;99.00;;;;;;4927252;29;20554;-93
2022/04/05 07:31:21;;;;;;;8.88;4.82;;;6.40;99.00;;;;;;4925173;29;20052;-88
2022/04/05 07:33:48;;;;;;;8.27;4.70;;;6.40;98.80;;;;;;4925158;29;20048;-84
2022/04/05 07:36:16;;;;;;;8.32;4.55;;;6.50;98.80;;;;;;4922719;29;20076;-88
2022/04/05 07:39:05;;;;;;;7.68;4.35;;;6.50;98.50;;;;;;4922794;29;20079;-89
2022/04/05 07:41:33;;;;;;;9.85;4.75;;;6.50;98.60;;;;;;4926073;29;20075;-87
2022/04/05 07:44:00;;;;;;;10.02;4.63;;;6.60;98.50;;;;;;4924822;29;20072;-85
2022/04/05 07:49:10;;;;;;;7.47;4.47;;;6.50;98.20;;;;;;4929147;29;20058;-87
2022/04/05 07:51:37;;;;;;;8.32;4.28;;;6.60;98.30;;;;;;4924893;29;20112;-84
2022/04/05 07:54:15;;;;;;;6.88;4.20;;;6.60;98.60;;;;;;4925676;29;20059;-86
2022/04/05 07:56:43;;;;;;;7.20;4.25;;;6.60;98.40;;;;;;4922446;29;20056;-83
2022/04/05 07:59:11;;;;;;;9.40;4.60;;;6.60;98.40;;;;;;4921514;29;20108;-81
2022/04/05 08:01:38;;;;;;;8.48;4.30;;;6.70;98.00;;;;;;4921124;29;20549;-84
2022/04/05 08:04:06;;;;;;;8.07;4.57;;;6.70;98.40;;;;;;4920447;29;20067;-82
2022/04/05 08:06:34;;;;;;;8.85;4.47;;;6.70;98.60;;;;;;4919765;29;20067;-81
2022/04/05 08:09:01;;;;;;;10.52;4.25;;;6.80;98.40;;;;;;4920037;29;20048;-83
2022/04/05 08:11:30;;;;;;;7.35;4.28;;;6.80;98.50;;;;;;4919563;29;20052;-84
2022/04/05 08:13:57;;;;;;;7.45;4.10;;;6.90;98.30;;;;;;4919393;29;20135;-82
2022/04/05 08:16:24;;;;;;;9.57;4.65;;;6.90;98.70;;;;;;4919208;29;20063;-79
2022/04/05 08:18:51;;;;;;;6.45;4.20;;;6.90;98.30;;;;;;4919022;29;20139;-82
2022/04/05 08:21:19;;;;;;;7.97;4.50;;;7.00;98.60;;;;;;4919362;29;20513;-81
2022/04/05 08:23:48;;;;;;;8.38;4.20;;;7.00;98.50;;;;;;4919302;29;20140;-81
2022/04/05 08:26:15;;;;;;;8.52;4.25;;;7.10;98.30;;;;;;4919220;29;20111;-82
2022/04/05 08:28:44;;;;;;;7.25;4.07;;;7.10;98.50;;;;;;4919162;29;20079;-80
2022/04/05 08:31:11;;;;;;;8.23;4.65;;;7.10;98.60;;;;;;4917866;29;20143;-81
2022/04/05 08:33:40;;;;;;;9.15;4.30;;;7.10;98.60;;;;;;4919154;29;20076;-81
2022/04/05 08:36:07;;;;;;;11.23;4.25;;;7.20;99.00;;;;;;4919665;29;20451;-80
2022/04/05 08:38:35;;;;;;;7.93;3.85;;;7.20;98.90;;;;;;4919130;29;20108;-82
2022/04/05 08:41:05;;;;;;;7.80;3.95;;;7.20;98.80;;;;;;4918841;29;20052;-85
2022/04/05 08:43:33;;;;;;;7.45;4.35;;;7.20;98.80;;;;;;4919248;29;20143;-81
2022/04/05 08:46:06;;;;;;;6.53;3.75;;;7.20;98.90;;;;;;4919514;29;20086;-82
2022/04/05 08:48:36;;;;;;;7.03;3.90;;;7.30;98.60;;;;;;4920038;29;20052;-81
2022/04/05 08:51:05;;;;;;;7.32;4.18;;;7.40;98.70;;;;;;4922370;29;20056;-82
2022/04/05 08:53:33;;;;;;;6.97;3.95;;;7.30;98.40;;;;;;4922615;29;20532;-82
2022/04/05 08:56:01;;;;;;;6.30;3.67;;;7.40;98.60;;;;;;4922494;29;20102;-80
2022/04/05 08:58:28;;;;;;;7.65;3.80;;;7.40;98.40;;;;;;4922489;29;20091;-81
2022/04/05 09:00:55;;;;;;;7.97;3.67;;;7.50;98.50;;;;;;4922428;29;20131;-80
2022/04/05 09:03:24;;;;;;;7.30;4.00;;;7.50;98.60;;;;;;4923317;29;20139;-84
2022/04/05 09:05:52;;;;;;;6.47;3.47;;;7.40;99.10;;;;;;4933030;29;20052;-82
2022/04/05 09:08:22;;;;;;;8.57;3.90;;;7.40;99.30;;;;;;4933785;29;20060;-83
2022/04/05 09:10:53;;;;;;;8.30;4.03;;;7.30;99.30;;;;;;4931524;29;20481;-82
2022/04/05 09:13:25;;;;;;;7.15;3.63;;;7.30;99.70;;;;;;4926142;29;20112;-82
2022/04/05 09:15:54;;;;;;;6.18;3.70;;;7.40;99.80;;;;;;4924632;29;20074;-82
2022/04/05 09:18:34;;;;;;;7.28;4.03;;;7.40;99.70;;;;;;4924453;29;20052;-82
2022/04/05 09:21:02;;;;;;;8.30;3.67;;;7.40;99.80;;;;;;4923124;29;20310;-83
2022/04/05 09:23:33;;;;;;;7.30;3.78;;;7.40;99.90;;;;;;4923632;29;20052;-78
2022/04/05 09:26:02;;;;;;;7.43;3.60;;;7.40;99.90;;;;;;4923363;29;20055;-81
2022/04/05 09:28:33;;;;;;;9.85;3.80;;;7.50;99.90;;;;;;4907215;29;20056;-81
2022/04/05 09:31:04;;;;;;;8.07;3.75;;;7.50;99.90;;;;;;4922515;29;20505;-83
2022/04/05 09:33:34;;;;;;;6.82;3.83;;;7.50;99.90;;;;;;4921855;29;20148;-83
2022/04/05 09:36:11;;;;;;;6.35;4.03;;;7.50;99.90;;;;;;4920678;29;20076;-81
2022/04/05 09:38:41;;;;;;;6.45;3.75;;;7.50;99.90;;;;;;4918296;29;20079;-79
2022/04/05 09:41:23;;;;;;;6.63;3.50;;;7.50;99.90;;;;;;4922694;29;20075;-79
2022/04/05 09:43:58;;;;;;;6.55;3.78;;;7.60;99.90;;;;;;4921588;29;20051;-84
2022/04/05 09:46:26;;;;;;;6.60;3.88;;;7.70;99.40;;;;;;4921821;29;20076;-84
2022/04/05 09:49:09;;;;;;;7.97;4.18;;;7.70;99.60;;;;;;4921793;29;20059;-81
2022/04/05 09:51:43;;;;;;;6.57;3.85;;;7.70;99.40;;;;;;4921379;29;20146;-79
2022/04/05 09:54:22;;;;;;;7.15;3.63;;;7.80;99.70;;;;;;4921107;29;20410;-79
2022/04/05 09:56:50;;;;;;;7.47;3.75;;;7.80;99.80;;;;;;4921360;29;20083;-78
2022/04/05 09:59:19;;;;;;;8.50;3.78;;;7.80;99.50;;;;;;4921355;29;20040;-81
2022/04/05 10:01:47;;;;;;;5.82;3.55;;;7.80;99.70;;;;;;4921332;29;20063;-80
2022/04/05 10:04:18;;;;;;;7.97;4.15;;;7.80;99.50;;;;;;4919899;29;20139;-81
2022/04/05 10:06:48;;;;;;;7.45;3.78;;;7.90;99.40;;;;;;4921594;29;20078;-80
2022/04/05 10:09:17;;;;;;;7.75;4.30;;;7.90;99.30;;;;;;4919678;29;20067;-81
2022/04/05 10:11:46;;;;;;;6.95;3.88;;;7.90;99.40;;;;;;4918323;29;20052;-78
2022/04/05 10:14:20;;;;;;;7.15;3.72;;;8.00;99.40;;;;;;4919456;29;20139;-79
2022/04/05 10:16:49;;;;;;;6.63;3.78;;;8.00;99.30;;;;;;4919134;29;20143;-81
2022/04/05 10:19:19;;;;;;;6.80;3.80;;;8.00;99.10;;;;;;4918034;29;20517;-79
2022/04/05 10:21:47;;;;;;;7.30;4.00;;;8.10;99.00;;;;;;4917695;29;20063;-78
2022/04/05 10:24:14;;;;;;;6.63;3.70;;;8.10;99.00;;;;;;4918269;29;20060;-78
2022/04/05 10:26:44;;;;;;;6.35;3.60;;;8.20;99.00;;;;;;4918126;29;20087;-81
2022/04/05 10:29:15;;;;;;;6.28;3.70;;;8.20;99.40;;;;;;4918443;29;20052;-81
2022/04/05 10:31:57;;;;;;;8.48;4.03;;;8.30;99.20;;;;;;4918520;29;20433;-79
2022/04/05 10:34:30;;;;;;;6.20;3.50;;;8.30;99.30;;;;;;4918284;29;20064;-81
2022/04/05 10:37:12;;;;;;;6.35;3.75;;;8.30;99.70;;;;;;4918737;29;20157;-81
2022/04/05 10:39:40;;;;;;;6.90;3.90;;;8.40;99.70;;;;;;4918675;29;20061;-81
2022/04/05 10:42:20;;;;;;;5.95;3.63;;;8.40;99.80;;;;;;4915953;29;20058;-81
2022/04/05 10:45:10;;;;;;;7.45;3.70;;;8.50;99.90;;;;;;4914281;29;20055;-80
2022/04/05 10:48:10;;;;;;;7.55;3.42;;;8.60;99.90;;;;;;4918314;29;20489;-78
2022/04/05 10:50:40;;;;;;;7.05;3.85;;;8.50;99.90;;;;;;4917778;29;20048;-80
2022/04/05 10:53:19;;;;;;;8.25;3.75;;;8.50;99.90;;;;;;4916655;29;20158;-81
2022/04/05 10:56:14;;;;;;;5.95;3.40;;;8.50;99.90;;;;;;4917088;29;20060;-80
2022/04/05 10:59:27;;;;;;;6.55;3.22;;;8.50;99.90;;;;;;4916965;29;20134;-82
2022/04/05 11:01:54;;;;;;;8.07;3.40;;;8.60;99.90;;;;;;4892201;29;20514;-83
2022/04/05 11:04:34;;;;;;;5.93;3.40;;;8.60;99.90;;;;;;4899888;29;20088;-81
2022/04/05 11:07:12;;;;;;;7.10;3.63;;;8.50;99.90;;;;;;4897783;29;20052;-81
2022/04/05 11:09:46;;;;;;;5.45;3.20;;;8.50;99.90;;;;;;4897734;29;20513;-78
2022/04/05 11:12:23;;;;;;;6.43;3.30;;;8.50;99.90;;;;;;4897970;29;20049;-79
2022/04/05 11:14:53;;;;;;;5.53;3.20;;;8.50;99.90;;;;;;4912461;29;20052;-79
2022/04/05 11:17:24;;;;;;;6.50;2.78;;;8.50;99.90;;;;;;4916887;29;20092;-77
2022/04/05 11:19:53;;;;;;;7.18;3.20;;;8.50;99.90;;;;;;4916399;29;20087;-79
2022/04/05 11:22:36;;;;;;;6.50;3.10;;;8.50;99.90;;;;;;4916080;29;20052;-78
2022/04/05 11:25:07;;;;;;;5.25;2.85;;;8.50;99.90;;;;;;4897787;29;20049;-79
2022/04/05 11:27:38;;;;;;;5.70;2.70;;;8.60;99.90;;;;;;4915927;29;20075;-77
2022/04/05 11:30:39;;;;;;;6.57;3.17;;;8.60;99.90;;;;;;4918170;29;20387;-77
2022/04/05 11:33:36;;;;;;;4.63;2.47;;;8.60;99.90;;;;;;4917238;29;20275;-82
2022/04/05 11:36:07;;;;;;;6.05;2.80;;;8.60;99.90;;;;;;4917912;29;20443;-79
2022/04/05 11:38:39;;;;;;;5.32;2.65;;;8.50;99.90;;;;;;4918057;29;20052;-79
2022/04/05 11:41:10;;;;;;;4.70;2.95;;;8.50;99.90;;;;;;4915742;29;20697;-78
2022/04/05 11:43:42;;;;;;;5.30;2.90;;;8.60;99.90;;;;;;4916949;29;20494;-77
2022/04/05 11:46:13;;;;;;;4.93;2.50;;;8.60;99.90;;;;;;4917098;29;20052;-81
2022/04/05 11:48:44;;;;;;;6.38;2.78;;;8.50;99.90;;;;;;4916890;29;20071;-77
2022/04/05 11:51:13;;;;;;;8.35;3.03;;;8.50;99.90;;;;;;4915908;29;20060;-79
2022/04/05 11:53:43;;;;;;;6.32;2.95;;;8.50;99.90;;;;;;4916629;29;20417;-79
2022/04/05 11:56:17;;;;;;;6.40;3.03;;;8.50;99.90;;;;;;4916779;29;20096;-77
2022/04/05 11:58:47;;;;;;;6.30;2.80;;;8.50;99.90;;;;;;4916838;29;20418;-78
2022/04/05 12:01:20;;;;;;;5.28;2.88;;;8.50;99.90;;;;;;4916936;29;20521;-80
2022/04/05 12:03:51;;;;;;;7.43;3.80;;;8.50;99.90;;;;;;4917114;29;20108;-75
2022/04/05 12:06:19;;;;;;;6.47;3.03;;;8.40;99.90;;;;;;4917419;29;20055;-78
2022/04/05 12:08:51;;;;;;;8.00;3.25;;;8.40;99.90;;;;;;4917315;29;20064;-79
2022/04/05 12:11:21;;;;;;;6.20;3.20;;;8.40;99.90;;;;;;4917405;29;20060;-77
2022/04/05 12:13:54;;;;;;;7.85;3.42;;;8.40;99.90;;;;;;4916842;29;20048;-79
2022/04/05 12:16:23;;;;;;;6.28;3.42;;;8.50;99.90;;;;;;4916903;29;20062;-79
2022/04/05 12:18:51;;;;;;;7.88;3.67;;;8.50;99.90;;;;;;4916676;29;20569;-81
2022/04/05 12:21:21;;;;;;;7.90;3.45;;;8.50;99.90;;;;;;4916005;29;20119;-78
2022/04/05 12:23:50;;;;;;;7.22;3.20;;;8.60;99.90;;;;;;4915875;29;20052;-78
2022/04/05 12:26:23;;;;;;;7.25;3.83;;;8.60;99.90;;;;;;4915942;29;20523;-81
2022/04/05 12:28:53;;;;;;;5.78;3.40;;;8.70;99.90;;;;;;4916349;29;20062;-78
2022/04/05 12:31:22;;;;;;;6.38;3.25;;;8.70;99.90;;;;;;4916633;29;20048;-78
2022/04/05 12:33:59;;;;;;;22.02;11.55;;;8.70;99.90;;;;;;4916681;29;20387;-77
2022/04/05 12:36:34;;;;;;;7.00;3.20;;;8.70;99.90;;;;;;4916717;29;20064;-81
2022/04/05 12:39:05;;;;;;;8.00;3.55;;;8.80;99.90;;;;;;4916501;29;20059;-78
2022/04/05 12:41:39;;;;;;;7.18;3.50;;;8.80;99.90;;;;;;4914788;29;20052;-78
2022/04/05 12:44:12;;;;;;;6.45;3.45;;;8.90;99.90;;;;;;4923532;29;20052;-81
2022/04/05 12:46:44;;;;;;;7.78;3.33;;;8.90;99.90;;;;;;4922958;29;20075;-81
2022/04/05 12:49:25;;;;;;;6.47;3.03;;;8.90;99.90;;;;;;4927338;29;20120;-81
2022/04/05 12:51:53;;;;;;;6.35;3.35;;;9.00;99.90;;;;;;4929224;29;20103;-81
2022/04/05 12:54:32;;;;;;;6.35;3.38;;;9.00;99.90;;;;;;4927068;29;20052;-80
2022/04/05 12:57:28;;;;;;;6.10;3.00;;;9.00;99.90;;;;;;4922635;29;20125;-80
2022/04/05 13:00:09;;;;;;;6.05;3.10;;;9.00;99.90;;;;;;4917970;29;20052;-80
2022/04/05 13:02:39;;;;;;;6.93;3.10;;;9.10;99.90;;;;;;4916218;29;20091;-81
2022/04/05 13:08:10;;;;;;;5.40;2.97;;;9.20;99.90;;;;;;4891791;29;20499;-79
2022/04/05 13:10:41;;;;;;;7.97;3.38;;;9.20;99.90;;;;;;4916588;29;20056;-79
2022/04/05 13:13:23;;;;;;;5.65;3.15;;;9.30;99.90;;;;;;4917189;29;20060;-78
2022/04/05 13:15:52;;;;;;;5.88;3.20;;;9.30;99.90;;;;;;4915768;29;20090;-79
2022/04/05 13:18:20;;;;;;;5.82;3.15;;;9.30;99.90;;;;;;4915980;29;20062;-81
2022/04/05 13:21:03;;;;;;;6.40;3.03;;;9.40;99.90;;;;;;4915738;29;20066;-81
2022/04/05 13:23:32;;;;;;;4.88;2.45;;;9.50;99.90;;;;;;4914144;29;20135;-80
2022/04/05 13:26:01;;;;;;;5.80;2.97;;;9.40;99.90;;;;;;4915436;29;20090;-78
2022/04/05 13:28:34;;;;;;;5.05;2.70;;;9.40;99.90;;;;;;4916214;29;20048;-79
2022/04/05 13:31:10;;;;;;;5.47;2.95;;;9.50;99.90;;;;;;4916500;29;20054;-79
2022/04/05 13:33:39;;;;;;;6.30;2.88;;;9.40;99.90;;;;;;4915683;29;20058;-79
2022/04/05 13:36:07;;;;;;;6.45;2.97;;;9.40;99.90;;;;;;4917598;29;20056;-77
2022/04/05 13:38:35;;;;;;;7.10;2.75;;;9.40;99.90;;;;;;4919398;29;20052;-80
2022/04/05 13:41:05;;;;;;;5.88;2.95;;;9.50;99.90;;;;;;4918412;29;20063;-81
2022/04/05 13:43:33;;;;;;;5.78;3.13;;;9.50;99.90;;;;;;4917586;29;20138;-80
2022/04/05 13:46:00;;;;;;;6.13;2.92;;;9.40;99.90;;;;;;4920447;29;20056;-81
2022/04/05 13:48:27;;;;;;;6.80;3.25;;;9.40;99.90;;;;;;4920178;29;20056;-81
2022/04/05 13:50:55;;;;;;;7.20;3.53;;;9.40;99.90;;;;;;4920000;29;20146;-79
2022/04/05 13:53:22;;;;;;;5.28;3.08;;;9.50;99.90;;;;;;4919848;29;20506;-81
2022/04/05 13:55:49;;;;;;;6.43;3.60;;;9.50;99.90;;;;;;4920122;29;20140;-80
2022/04/05 13:58:18;;;;;;;7.05;3.30;;;9.50;99.90;;;;;;4920076;29;20095;-79
2022/04/05 14:00:45;;;;;;;6.10;3.13;;;9.50;99.90;;;;;;4920015;29;20062;-79
2022/04/05 14:03:12;;;;;;;5.82;3.28;;;9.50;99.90;;;;;;4918677;29;20462;-78
2022/04/05 14:05:39;;;;;;;6.60;3.10;;;9.50;99.90;;;;;;4918641;29;20131;-80
2022/04/05 14:08:07;;;;;;;5.97;3.22;;;9.50;99.90;;;;;;4917197;29;20056;-80
2022/04/05 14:10:36;;;;;;;5.88;2.80;;;9.60;99.90;;;;;;4916834;29;20059;-81
2022/04/05 14:13:03;;;;;;;6.18;3.17;;;9.50;99.90;;;;;;4920845;29;20056;-83
2022/04/05 14:15:32;;;;;;;5.43;3.13;;;9.50;99.90;;;;;;4918913;29;20103;-80
2022/04/05 14:17:59;;;;;;;6.43;3.40;;;9.60;99.90;;;;;;4918107;29;20064;-80
2022/04/05 14:20:26;;;;;;;8.30;3.72;;;9.50;99.90;;;;;;4917767;29;20486;-81
2022/04/05 14:22:53;;;;;;;5.90;3.35;;;9.60;99.90;;;;;;4918019;29;20059;-79
2022/04/05 14:25:21;;;;;;;6.50;3.13;;;9.60;99.90;;;;;;4917744;29;20051;-79
2022/04/05 14:27:48;;;;;;;4.65;2.92;;;9.60;99.90;;;;;;4917299;29;20051;-79
2022/04/05 14:30:15;;;;;;;5.90;3.10;;;9.60;99.90;;;;;;4917112;29;20517;-81
2022/04/05 14:32:44;;;;;;;6.75;3.58;;;9.60;99.90;;;;;;4917473;29;20056;-81
2022/04/05 14:35:14;;;;;;;7.65;3.40;;;9.60;99.90;;;;;;4917426;29;20059;-80
2022/04/05 14:37:41;;;;;;;5.57;3.28;;;9.60;99.90;;;;;;4916358;29;20063;-79
2022/04/05 14:40:10;;;;;;;4.80;3.08;;;9.70;99.90;;;;;;4916438;29;20059;-79
2022/04/05 14:42:38;;;;;;;6.28;3.10;;;9.70;99.90;;;;;;4915141;29;20498;-79
2022/04/05 14:45:06;;;;;;;5.78;2.92;;;9.70;99.90;;;;;;4916698;29;20155;-80
2022/04/05 14:47:33;;;;;;;6.70;3.10;;;9.80;99.90;;;;;;4916295;29;20087;-79
2022/04/05 14:50:02;;;;;;;6.30;3.28;;;9.80;99.90;;;;;;4917190;29;20070;-81
2022/04/05 14:52:30;;;;;;;5.88;2.95;;;9.80;99.90;;;;;;4916752;29;20058;-81
2022/04/05 14:54:58;;;;;;;5.63;3.30;;;9.80;99.90;;;;;;4915702;29;20075;-89
2022/04/05 14:57:26;;;;;;;4.95;2.67;;;9.80;99.90;;;;;;4918684;29;20063;-87
2022/04/05 14:59:53;;;;;;;6.82;4.07;;;9.80;99.90;;;;;;4916875;29;20060;-87
2022/04/05 15:02:22;;;;;;;6.35;3.20;;;10.00;99.90;;;;;;4916484;29;20490;-87
2022/04/05 15:04:50;;;;;;;7.22;3.00;;;10.00;99.90;;;;;;4917568;29;20071;-89
2022/04/05 15:07:18;;;;;;;7.50;3.30;;;10.00;99.90;;;;;;4916973;29;20055;-85
2022/04/05 15:09:45;;;;;;;4.85;2.88;;;10.00;99.90;;;;;;4917196;29;20057;-85
2022/04/05 15:12:12;;;;;;;4.93;2.70;;;10.00;99.90;;;;;;4917180;29;20056;-83
2022/04/05 15:14:40;;;;;;;4.93;2.80;;;10.00;99.90;;;;;;4916829;29;20140;-85
2022/04/05 15:17:07;;;;;;;5.20;2.97;;;10.00;99.90;;;;;;4918060;29;20060;-86
2022/04/05 15:19:34;;;;;;;4.53;2.60;;;10.00;99.90;;;;;;4918206;29;20056;-85
2022/04/05 15:22:01;;;;;;;5.13;2.50;;;10.00;99.90;;;;;;4913132;29;20080;-85
2022/04/05 15:24:31;;;;;;;6.20;2.80;;;10.00;99.90;;;;;;4910484;29;20070;-86
2022/04/05 15:26:59;;;;;;;5.07;2.60;;;10.10;99.90;;;;;;4920158;29;20056;-86
2022/04/05 15:29:37;;;;;;;5.05;2.45;;;10.10;99.90;;;;;;4920870;29;20107;-85
2022/04/05 15:32:07;;;;;;;5.18;2.50;;;10.10;99.90;;;;;;4918316;29;20052;-83
2022/04/05 15:34:35;;;;;;;5.45;2.30;;;10.10;99.90;;;;;;4918573;29;20052;-85
2022/04/05 15:37:02;;;;;;;4.68;2.70;;;10.10;99.90;;;;;;4918869;29;20095;-84
2022/04/05 15:39:31;;;;;;;5.07;2.60;;;10.00;99.90;;;;;;4919151;29;20056;-87
2022/04/05 15:41:59;;;;;;;5.38;2.78;;;10.10;99.90;;;;;;4917524;29;20585;-89
2022/04/05 15:44:26;;;;;;;5.22;2.85;;;10.00;99.90;;;;;;4918141;29;20137;-87
2022/04/05 15:46:53;;;;;;;5.57;2.72;;;10.00;99.90;;;;;;4918801;29;20071;-86
2022/04/05 15:49:21;;;;;;;5.05;2.75;;;10.10;99.90;;;;;;4917083;29;20576;-87
2022/04/05 15:51:48;;;;;;;4.63;2.65;;;10.10;99.90;;;;;;4916687;29;20136;-87
2022/04/05 15:54:16;;;;;;;5.25;2.65;;;10.10;99.90;;;;;;4916250;29;20052;-81
2022/04/05 15:56:45;;;;;;;6.72;2.95;;;10.10;99.90;;;;;;4912428;29;20139;-82
2022/04/05 15:59:13;;;;;;;8.13;4.25;;;10.10;99.90;;;;;;4916353;29;20135;-85
2022/04/05 16:01:40;;;;;;;5.32;2.70;;;10.00;99.90;;;;;;4916389;29;20585;-82
2022/04/05 16:04:07;;;;;;;5.90;2.78;;;10.10;99.90;;;;;;4914019;29;20140;-87
2022/04/05 16:06:34;;;;;;;5.18;2.70;;;10.00;99.90;;;;;;4904260;29;20051;-89
2022/04/05 16:09:01;;;;;;;8.07;2.95;;;10.10;99.90;;;;;;4919738;29;20562;-84
2022/04/05 16:11:29;;;;;;;5.00;2.65;;;10.00;99.90;;;;;;4912627;29;20123;-86
2022/04/05 16:13:58;;;;;;;5.68;2.70;;;10.00;99.90;;;;;;4918364;29;20051;-88
2022/04/05 16:16:25;;;;;;;6.68;2.92;;;10.00;99.90;;;;;;4919117;29;20603;-86
2022/04/05 16:18:52;;;;;;;5.18;2.85;;;10.00;99.90;;;;;;4918497;29;20056;-86
2022/04/05 16:21:19;;;;;;;5.82;2.72;;;10.00;99.90;;;;;;4919074;29;20405;-83
2022/04/05 16:23:46;;;;;;;7.18;2.70;;;10.00;99.90;;;;;;4919196;29;20048;-85
2022/04/05 16:26:14;;;;;;;4.78;2.75;;;10.00;99.90;;;;;;4919852;29;20067;-82
2022/04/05 16:28:41;;;;;;;6.28;2.83;;;10.10;99.90;;;;;;4928191;29;20051;-83
2022/04/05 16:31:10;;;;;;;5.22;2.92;;;10.00;99.90;;;;;;4927157;29;20063;-88
2022/04/05 16:33:38;;;;;;;5.55;2.70;;;10.00;99.90;;;;;;4920137;29;20458;-75
2022/04/05 16:36:07;;;;;;;5.38;2.85;;;10.10;99.90;;;;;;4916359;29;20140;-88
2022/04/05 16:38:35;;;;;;;4.78;2.85;;;10.10;99.90;;;;;;4917088;29;20136;-81
2022/04/05 16:41:02;;;;;;;6.07;3.10;;;9.90;99.90;;;;;;4914623;29;20456;-77
2022/04/05 16:43:29;;;;;;;5.32;3.05;;;9.90;99.90;;;;;;4916052;29;20139;-84
2022/04/05 16:45:56;;;;;;;6.72;3.10;;;9.90;99.90;;;;;;4917594;29;20134;-83
2022/04/05 16:48:25;;;;;;;6.72;3.33;;;9.90;99.90;;;;;;4915614;29;20137;-81
2022/04/05 16:50:52;;;;;;;4.82;2.88;;;9.90;99.90;;;;;;4917628;29;20146;-81
2022/04/05 16:53:22;;;;;;;7.00;3.28;;;9.80;99.90;;;;;;4916685;29;20052;-86
2022/04/05 16:55:51;;;;;;;7.85;4.78;;;9.90;99.90;;;;;;4914862;29;20052;-83
2022/04/05 16:58:19;;;;;;;6.00;3.03;;;9.90;99.90;;;;;;4917113;29;20048;-88
2022/04/05 17:00:46;;;;;;;5.82;3.28;;;9.90;99.90;;;;;;4917560;29;20107;-82
2022/04/05 17:03:14;;;;;;;7.65;3.10;;;9.90;99.90;;;;;;4907288;29;20487;-84
2022/04/05 17:05:42;;;;;;;4.65;2.80;;;9.90;99.90;;;;;;4897284;29;20087;-78
2022/04/05 17:08:13;;;;;;;5.43;2.88;;;9.90;99.90;;;;;;4899734;29;20132;-84
2022/04/05 17:10:40;;;;;;;5.18;3.10;;;9.90;99.90;;;;;;4914681;29;20047;-84
2022/04/05 17:13:08;;;;;;;8.18;3.25;;;9.90;99.90;;;;;;4924658;29;20087;-83
2022/04/05 17:15:35;;;;;;;6.15;2.83;;;9.90;99.90;;;;;;4922903;29;20054;-83
2022/04/05 17:18:03;;;;;;;5.38;3.58;;;9.90;99.90;;;;;;4920442;29;20139;-83
2022/04/05 17:20:30;;;;;;;5.85;3.40;;;9.90;99.90;;;;;;4920977;29;20143;-83
2022/04/05 17:22:59;;;;;;;6.22;3.30;;;9.90;99.90;;;;;;4918791;29;20418;-80
2022/04/05 17:25:28;;;;;;;6.68;3.00;;;9.90;99.90;;;;;;4918297;29;20148;-81
2022/04/05 17:27:55;;;;;;;6.72;3.10;;;9.90;99.90;;;;;;4919653;29;20076;-79
2022/04/05 17:30:22;;;;;;;5.38;3.30;;;9.90;99.90;;;;;;4918925;29;20051;-82
2022/04/05 17:32:49;;;;;;;7.55;3.92;;;9.90;99.90;;;;;;4917978;29;20052;-83
2022/04/05 17:35:17;;;;;;;6.60;3.75;;;10.00;99.90;;;;;;4918215;29;20138;-83
2022/04/05 17:37:44;;;;;;;8.05;3.72;;;9.90;99.90;;;;;;4919839;29;20135;-85
2022/04/05 17:40:13;;;;;;;5.45;3.42;;;9.90;99.90;;;;;;4920028;29;20560;-84
2022/04/05 17:42:41;;;;;;;8.20;3.42;;;9.90;99.90;;;;;;4905130;29;20127;-84
2022/04/05 17:45:09;;;;;;;5.78;3.35;;;9.90;99.90;;;;;;4917398;29;20052;-84
2022/04/05 17:47:37;;;;;;;5.93;3.40;;;10.00;99.90;;;;;;4918196;29;20520;-85
2022/04/05 17:50:07;;;;;;;5.43;3.50;;;9.90;99.90;;;;;;4920021;29;20494;-82
2022/04/05 17:52:35;;;;;;;5.20;3.17;;;9.90;99.90;;;;;;4919465;29;20060;-82
2022/04/05 17:55:02;;;;;;;5.40;3.47;;;9.90;99.90;;;;;;4917609;29;20486;-83
2022/04/05 17:57:31;;;;;;;8.77;3.92;;;9.90;99.90;;;;;;4915620;29;20087;-84
2022/04/05 17:59:58;;;;;;;17.02;8.65;;;9.80;99.90;;;;;;4899839;29;20143;-80
2022/04/05 18:02:25;;;;;;;6.00;3.63;;;9.90;99.90;;;;;;4901130;29;20056;-81
2022/04/05 18:04:53;;;;;;;6.35;3.42;;;9.90;99.90;;;;;;4907278;29;20052;-84
2022/04/05 18:07:20;;;;;;;6.00;3.50;;;9.90;99.90;;;;;;4913945;29;20058;-80
2022/04/05 18:09:48;;;;;;;5.50;3.22;;;9.90;99.90;;;;;;4929961;29;20130;-81
2022/04/05 18:12:17;;;;;;;5.53;3.25;;;9.90;99.90;;;;;;4913839;29;20107;-81
2022/04/05 18:14:45;;;;;;;7.30;3.67;;;9.90;99.90;;;;;;4911321;29;20139;-80
2022/04/05 18:17:12;;;;;;;5.75;3.65;;;9.90;99.90;;;;;;4915343;29;20052;-83
2022/04/05 18:19:39;;;;;;;7.55;3.67;;;9.90;99.90;;;;;;4913191;29;20056;-82
2022/04/05 18:22:07;;;;;;;6.78;3.38;;;9.90;99.90;;;;;;4917036;29;20136;-79
2022/04/05 18:24:34;;;;;;;6.72;4.03;;;9.90;99.90;;;;;;4917291;29;20146;-82
2022/04/05 18:27:05;;;;;;;6.60;3.58;;;9.90;99.90;;;;;;4915907;29;20122;-80
2022/04/05 18:29:32;;;;;;;6.47;3.60;;;9.90;99.90;;;;;;4917769;29;20056;-82
2022/04/05 18:32:01;;;;;;;5.75;3.67;;;9.90;99.90;;;;;;4917092;29;20048;-82
2022/04/05 18:34:29;;;;;;;6.57;3.50;;;9.90;99.90;;;;;;4916620;29;20084;-81
2022/04/05 18:36:56;;;;;;;8.13;3.85;;;9.80;99.90;;;;;;4916817;29;20106;-79
2022/04/05 18:39:26;;;;;;;6.97;3.92;;;9.80;99.90;;;;;;4918418;29;20075;-83
2022/04/05 18:41:53;;;;;;;6.35;3.65;;;9.80;99.90;;;;;;4915937;29;20451;-78
2022/04/05 18:44:22;;;;;;;8.45;3.90;;;9.80;99.90;;;;;;4917853;29;20576;-81
2022/04/05 18:46:49;;;;;;;7.35;3.75;;;9.90;99.90;;;;;;4915932;29;20144;-75